createdAt,value
2022-11-06T00:00:34.062Z,0.50
2022-11-06T00:03:02.852Z,0.40
2022-11-06T00:05:49.301Z,0.50
2022-11-06T00:08:26.636Z,0.50
2022-11-06T00:10:54.690Z,0.50
2022-11-06T00:13:22.842Z,0.30
2022-11-06T00:15:52.579Z,0.30
2022-11-06T00:18:20.865Z,0.50
2022-11-06T00:20:48.911Z,0.60
2022-11-06T00:23:16.934Z,0.60
2022-11-06T00:25:44.922Z,0.60
2022-11-06T00:28:13.302Z,0.60
2022-11-06T00:30:41.478Z,0.60
2022-11-06T00:33:10.988Z,0.60
2022-11-06T00:35:40.084Z,0.60
2022-11-06T00:38:08.153Z,0.70
2022-11-06T00:40:36.137Z,0.70
2022-11-06T00:43:04.136Z,0.70
2022-11-06T00:45:32.118Z,0.70
2022-11-06T00:48:00.178Z,0.70
2022-11-06T00:50:29.539Z,0.60
2022-11-06T00:52:57.986Z,0.70
2022-11-06T00:55:26.069Z,0.60
2022-11-06T00:57:54.164Z,0.60
2022-11-06T01:00:22.549Z,0.60
2022-11-06T01:02:50.714Z,0.60
2022-11-06T01:05:19.026Z,0.70
2022-11-06T01:07:48.441Z,0.70
2022-11-06T01:10:16.441Z,0.80
2022-11-06T01:12:44.416Z,0.80
2022-11-06T01:15:12.754Z,0.80
2022-11-06T01:17:40.735Z,0.90
2022-11-06T01:20:09.938Z,1.00
2022-11-06T01:22:38.044Z,1.00
2022-11-06T01:25:09.322Z,1.00
2022-11-06T01:27:37.535Z,1.00
2022-11-06T01:30:06.668Z,1.10
2022-11-06T01:32:35.767Z,1.10
2022-11-06T01:35:05.094Z,1.20
2022-11-06T01:37:33.093Z,1.30
2022-11-06T01:40:01.364Z,1.40
2022-11-06T01:42:30.758Z,1.50
2022-11-06T01:45:21.121Z,1.60
2022-11-06T01:47:50.038Z,1.60
2022-11-06T01:50:18.862Z,1.70
2022-11-06T01:52:48.749Z,1.70
2022-11-06T01:55:21.125Z,1.70
2022-11-06T01:57:50.677Z,1.80
2022-11-06T02:00:20.989Z,1.80
2022-11-06T02:02:50.314Z,1.90
2022-11-06T02:05:18.741Z,2.00
2022-11-06T02:07:47.596Z,1.90
2022-11-06T02:10:15.802Z,1.80
2022-11-06T02:12:53.102Z,1.90
2022-11-06T02:15:29.285Z,1.90
2022-11-06T02:18:18.239Z,2.00
2022-11-06T02:21:00.247Z,1.80
2022-11-06T02:23:51.896Z,1.80
2022-11-06T02:26:38.764Z,1.80
2022-11-06T02:29:11.238Z,1.80
2022-11-06T02:31:42.441Z,1.80
2022-11-06T02:34:15.450Z,1.80
2022-11-06T02:36:51.787Z,1.70
2022-11-06T02:39:23.529Z,1.60
2022-11-06T02:41:53.738Z,1.60
2022-11-06T02:44:27.444Z,1.60
2022-11-06T02:46:58.427Z,1.50
2022-11-06T02:49:31.366Z,1.50
2022-11-06T02:52:04.959Z,1.30
2022-11-06T02:54:39.029Z,1.20
2022-11-06T02:57:10.830Z,1.20
2022-11-06T02:59:46.539Z,1.20
2022-11-06T03:02:19.503Z,1.00
2022-11-06T03:04:52.612Z,1.00
2022-11-06T03:07:26.614Z,1.10
2022-11-06T03:09:54.685Z,1.00
2022-11-06T03:12:27.124Z,1.00
2022-11-06T03:14:59.530Z,0.90
2022-11-06T03:17:36.196Z,1.00
2022-11-06T03:20:11.650Z,1.00
2022-11-06T03:22:45.478Z,1.00
2022-11-06T03:25:19.826Z,0.90
2022-11-06T03:27:58.065Z,0.80
2022-11-06T03:30:27.653Z,0.80
2022-11-06T03:33:01.686Z,0.90
2022-11-06T03:35:34.181Z,0.70
2022-11-06T03:38:06.498Z,0.60
2022-11-06T03:40:39.258Z,0.40
2022-11-06T03:43:11.568Z,0.50
2022-11-06T03:45:42.329Z,0.50
2022-11-06T03:48:15.162Z,0.60
2022-11-06T03:50:51.518Z,0.60
2022-11-06T03:53:24.986Z,0.50
2022-11-06T03:55:55.920Z,0.50
2022-11-06T03:58:25.743Z,0.40
2022-11-06T04:00:57.690Z,0.30
2022-11-06T04:03:29.280Z,0.20
2022-11-06T04:06:03.486Z,0.10
2022-11-06T04:08:52.077Z,0.00
2022-11-06T04:11:40.843Z,0.00
2022-11-06T04:14:09.442Z,0.00
2022-11-06T04:16:42.786Z,-0.10
2022-11-06T04:19:16.543Z,0.00
2022-11-06T04:22:02.283Z,0.10
2022-11-06T04:24:58.061Z,0.00
2022-11-06T04:27:38.307Z,0.10
2022-11-06T04:30:09.517Z,-0.10
2022-11-06T04:33:00.254Z,-0.20
2022-11-06T04:35:34.709Z,-0.20
2022-11-06T04:38:09.519Z,-0.30
2022-11-06T04:40:48.216Z,-0.40
2022-11-06T04:43:23.899Z,-0.30
2022-11-06T04:45:55.283Z,-0.30
2022-11-06T04:48:26.409Z,-0.40
2022-11-06T04:50:56.594Z,-0.50
2022-11-06T04:53:26.314Z,-0.40
2022-11-06T04:55:56.668Z,-0.30
2022-11-06T04:58:24.629Z,-0.40
2022-11-06T05:00:53.129Z,-0.40
2022-11-06T05:03:21.185Z,-0.20
2022-11-06T05:05:50.583Z,-0.10
2022-11-06T05:08:20.979Z,-0.10
2022-11-06T05:10:49.619Z,-0.10
2022-11-06T05:13:17.591Z,0.10
2022-11-06T05:15:45.666Z,0.10
2022-11-06T05:18:13.886Z,0.10
2022-11-06T05:20:42.090Z,0.10
2022-11-06T05:23:10.472Z,0.10
2022-11-06T05:25:40.228Z,-0.10
2022-11-06T05:28:09.268Z,-0.10
2022-11-06T05:30:38.265Z,0.10
2022-11-06T05:33:14.922Z,0.20
2022-11-06T05:35:43.014Z,-0.10
2022-11-06T05:38:12.773Z,0.20
2022-11-06T05:40:40.953Z,0.20
2022-11-06T05:43:09.035Z,0.30
2022-11-06T05:45:37.080Z,0.30
2022-11-06T05:48:05.481Z,0.30
2022-11-06T05:50:33.434Z,0.30
2022-11-06T05:53:01.687Z,0.30
2022-11-06T05:55:31.130Z,0.20
2022-11-06T05:58:00.222Z,0.20
2022-11-06T06:00:28.203Z,0.10
2022-11-06T06:02:56.361Z,0.00
2022-11-06T06:05:24.417Z,0.20
2022-11-06T06:07:52.497Z,0.10
2022-11-06T06:10:23.874Z,0.20
2022-11-06T06:12:53.266Z,0.30
2022-11-06T06:15:21.228Z,0.20
2022-11-06T06:17:49.193Z,0.30
2022-11-06T06:20:17.365Z,0.30
2022-11-06T06:22:45.289Z,0.20
2022-11-06T06:25:22.355Z,0.10
2022-11-06T06:27:51.589Z,0.00
2022-11-06T06:30:21.772Z,0.00
2022-11-06T06:32:49.981Z,0.00
2022-11-06T06:35:18.857Z,0.00
2022-11-06T06:37:52.586Z,0.00
2022-11-06T06:40:20.952Z,0.20
2022-11-06T06:42:48.918Z,0.20
2022-11-06T06:45:17.406Z,0.20
2022-11-06T06:47:46.742Z,0.20
2022-11-06T06:50:14.853Z,0.20
2022-11-06T06:52:42.878Z,0.40
2022-11-06T06:55:11.180Z,0.30
2022-11-06T06:57:39.224Z,0.50
2022-11-06T07:00:08.699Z,0.60
2022-11-06T07:02:36.768Z,0.50
2022-11-06T07:05:06.694Z,0.70
2022-11-06T07:07:34.619Z,0.70
2022-11-06T07:10:02.610Z,0.90
2022-11-06T07:12:30.597Z,1.00
2022-11-06T07:14:58.691Z,1.10
2022-11-06T07:17:26.782Z,1.30
2022-11-06T07:19:54.896Z,1.30
2022-11-06T07:22:32.350Z,1.50
2022-11-06T07:25:05.319Z,1.50
2022-11-06T07:27:33.533Z,1.70
2022-11-06T07:30:01.850Z,1.70
2022-11-06T07:32:30.205Z,1.70
2022-11-06T07:34:58.294Z,1.80
2022-11-06T07:37:27.933Z,2.00
2022-11-06T07:39:56.166Z,2.20
2022-11-06T07:42:24.154Z,2.20
2022-11-06T07:44:54.446Z,2.50
2022-11-06T07:47:23.258Z,2.60
2022-11-06T07:49:51.459Z,2.50
2022-11-06T07:52:19.530Z,2.70
2022-11-06T07:54:49.289Z,2.80
2022-11-06T07:57:17.375Z,2.70
2022-11-06T07:59:45.574Z,2.80
2022-11-06T08:02:14.336Z,3.00
2022-11-06T08:04:42.506Z,2.70
2022-11-06T08:07:11.098Z,2.80
2022-11-06T08:09:39.561Z,2.70
2022-11-06T08:12:09.321Z,2.70
2022-11-06T08:14:41.314Z,2.80
2022-11-06T08:17:09.933Z,2.90
2022-11-06T08:19:38.055Z,3.00
2022-11-06T08:22:06.145Z,3.00
2022-11-06T08:24:34.904Z,3.10
2022-11-06T08:27:03.329Z,3.20
2022-11-06T08:29:37.014Z,3.10
2022-11-06T08:32:08.061Z,3.10
2022-11-06T08:34:36.705Z,3.00
2022-11-06T08:37:04.688Z,2.90
2022-11-06T08:39:32.850Z,2.80
2022-11-06T08:42:01.856Z,2.90
2022-11-06T08:44:29.849Z,2.90
2022-11-06T08:46:59.222Z,3.20
2022-11-06T08:49:28.835Z,3.30
2022-11-06T08:51:57.366Z,3.20
2022-11-06T08:54:25.309Z,3.10
2022-11-06T08:56:53.275Z,3.20
2022-11-06T08:59:21.567Z,3.20
2022-11-06T09:01:49.632Z,3.30
2022-11-06T09:04:19.293Z,3.40
2022-11-06T09:06:47.222Z,3.60
2022-11-06T09:09:15.191Z,3.50
2022-11-06T09:11:43.248Z,3.60
2022-11-06T09:14:11.315Z,4.00
2022-11-06T09:16:39.368Z,4.00
2022-11-06T09:19:07.463Z,3.90
2022-11-06T09:21:36.781Z,3.70
2022-11-06T09:24:05.242Z,3.50
2022-11-06T09:26:33.272Z,3.50
2022-11-06T09:29:01.341Z,4.10
2022-11-06T09:31:29.344Z,4.70
2022-11-06T09:33:57.336Z,4.70
2022-11-06T09:36:25.541Z,4.40
2022-11-06T09:38:54.871Z,4.20
2022-11-06T09:41:29.353Z,4.20
2022-11-06T09:44:12.580Z,4.40
2022-11-06T09:46:45.322Z,4.60
2022-11-06T09:49:20.564Z,4.70
2022-11-06T09:51:53.496Z,5.00
2022-11-06T09:54:28.547Z,5.30
2022-11-06T09:57:02.293Z,5.50
2022-11-06T09:59:35.822Z,5.40
2022-11-06T10:02:11.217Z,5.40
2022-11-06T10:04:46.869Z,5.60
2022-11-06T10:07:25.425Z,5.40
2022-11-06T10:09:54.993Z,5.30
2022-11-06T10:12:34.336Z,5.50
2022-11-06T10:15:13.487Z,6.30
2022-11-06T10:17:53.905Z,6.90
2022-11-06T10:20:27.668Z,7.10
2022-11-06T10:23:05.572Z,7.50
2022-11-06T10:25:52.830Z,8.00
2022-11-06T10:28:35.157Z,8.00
2022-11-06T10:31:14.496Z,8.00
2022-11-06T10:33:54.119Z,7.80
2022-11-06T10:36:25.882Z,7.40
2022-11-06T10:38:55.721Z,7.50
2022-11-06T10:41:29.860Z,7.50
2022-11-06T10:44:03.506Z,7.50
2022-11-06T10:46:36.236Z,7.40
2022-11-06T10:49:12.012Z,7.30
2022-11-06T10:51:57.182Z,7.40
2022-11-06T10:54:43.730Z,7.40
2022-11-06T10:57:24.371Z,7.50
2022-11-06T10:59:52.726Z,7.30
2022-11-06T11:02:27.365Z,7.20
2022-11-06T11:04:58.034Z,7.50
2022-11-06T11:07:30.297Z,7.60
2022-11-06T11:09:58.262Z,7.70
2022-11-06T11:12:29.530Z,7.90
2022-11-06T11:15:12.938Z,8.10
2022-11-06T11:17:42.464Z,8.10
2022-11-06T11:20:34.250Z,8.20
2022-11-06T11:23:15.620Z,8.20
2022-11-06T11:25:48.807Z,8.30
2022-11-06T11:28:28.683Z,8.20
2022-11-06T11:31:06.777Z,8.20
2022-11-06T11:33:35.440Z,8.00
2022-11-06T11:36:05.518Z,8.10
2022-11-06T11:38:35.925Z,8.30
2022-11-06T11:41:09.336Z,8.50
2022-11-06T11:43:38.813Z,8.60
2022-11-06T11:46:20.683Z,8.60
2022-11-06T11:48:51.322Z,8.60
2022-11-06T11:51:29.623Z,8.50
2022-11-06T11:54:02.210Z,8.50
2022-11-06T11:57:02.268Z,8.50
2022-11-06T11:59:24.386Z,8.50
2022-11-06T12:01:53.838Z,8.40
2022-11-06T12:04:27.452Z,8.30
2022-11-06T12:07:01.525Z,8.20
2022-11-06T12:09:32.655Z,8.10
2022-11-06T12:12:02.274Z,8.20
2022-11-06T12:14:38.899Z,8.30
2022-11-06T12:17:17.604Z,8.30
2022-11-06T12:19:51.344Z,8.30
2022-11-06T12:22:27.855Z,8.30
2022-11-06T12:25:01.016Z,8.20
2022-11-06T12:27:33.931Z,8.00
2022-11-06T12:30:11.118Z,8.20
2022-11-06T12:32:55.086Z,8.30
2022-11-06T12:35:28.697Z,8.40
2022-11-06T12:38:06.963Z,8.40
2022-11-06T12:40:40.156Z,8.50
2022-11-06T12:43:17.223Z,8.70
2022-11-06T12:45:58.309Z,8.60
2022-11-06T12:48:44.856Z,8.60
2022-11-06T12:51:21.209Z,8.80
2022-11-06T12:54:03.487Z,8.70
2022-11-06T12:56:42.360Z,8.60
2022-11-06T12:59:22.633Z,8.50
2022-11-06T13:02:01.376Z,8.30
2022-11-06T13:04:45.766Z,8.60
2022-11-06T13:07:41.433Z,8.60
2022-11-06T13:10:27.476Z,8.80
2022-11-06T13:13:14.987Z,8.70
2022-11-06T13:15:50.711Z,8.80
2022-11-06T13:18:25.777Z,8.40
2022-11-06T13:20:58.245Z,8.30
2022-11-06T13:23:30.068Z,8.20
2022-11-06T13:26:04.326Z,8.20
2022-11-06T13:28:38.783Z,8.10
2022-11-06T13:31:09.243Z,8.30
2022-11-06T13:33:43.868Z,8.40
2022-11-06T13:36:12.618Z,8.50
2022-11-06T13:38:47.201Z,8.50
2022-11-06T13:41:19.783Z,8.60
2022-11-06T13:43:52.045Z,8.80
2022-11-06T13:46:27.854Z,8.70
2022-11-06T13:49:06.527Z,8.70
2022-11-06T13:51:44.841Z,8.60
2022-11-06T13:54:21.002Z,8.60
2022-11-06T13:57:07.508Z,8.60
2022-11-06T13:59:54.749Z,8.80
2022-11-06T14:02:40.839Z,8.80
2022-11-06T14:05:40.717Z,8.80
2022-11-06T14:08:16.440Z,8.80
2022-11-06T14:10:53.744Z,8.70
2022-11-06T14:13:27.531Z,8.60
2022-11-06T14:16:15.758Z,8.70
2022-11-06T14:18:43.954Z,8.60
2022-11-06T14:21:51.576Z,8.60
2022-11-06T14:24:41.070Z,8.60
2022-11-06T14:27:14.758Z,8.60
2022-11-06T14:30:01.760Z,8.60
2022-11-06T14:32:57.268Z,8.50
2022-11-06T14:35:53.065Z,8.50
2022-11-06T14:38:46.413Z,8.30
2022-11-06T14:41:55.555Z,8.40
2022-11-06T14:44:46.297Z,8.40
2022-11-06T14:47:32.573Z,8.30
2022-11-06T14:50:17.627Z,8.30
2022-11-06T14:52:48.814Z,8.20
2022-11-06T14:55:29.661Z,8.10
2022-11-06T14:58:02.552Z,8.00
2022-11-06T15:00:37.700Z,7.90
2022-11-06T15:03:16.808Z,7.80
2022-11-06T15:05:49.615Z,7.80
2022-11-06T15:08:55.593Z,7.70
2022-11-06T15:11:59.858Z,7.70
2022-11-06T15:15:04.820Z,7.50
2022-11-06T15:17:36.704Z,7.40
2022-11-06T15:20:21.990Z,7.30
2022-11-06T15:23:15.152Z,7.00
2022-11-06T15:26:02.131Z,6.80
2022-11-06T15:28:39.215Z,6.70
2022-11-06T15:31:12.528Z,6.40
2022-11-06T15:33:55.722Z,6.30
2022-11-06T15:36:24.923Z,6.20
2022-11-06T15:38:52.953Z,6.10
2022-11-06T15:41:24.161Z,6.00
2022-11-06T15:43:56.201Z,5.90
2022-11-06T15:46:26.278Z,5.90
2022-11-06T15:49:17.195Z,5.80
2022-11-06T15:51:53.604Z,5.70
2022-11-06T15:54:35.925Z,5.50
2022-11-06T15:57:08.790Z,5.40
2022-11-06T15:59:38.088Z,5.30
2022-11-06T16:02:10.961Z,5.20
2022-11-06T16:04:39.245Z,5.10
2022-11-06T16:07:09.211Z,4.90
2022-11-06T16:09:37.838Z,4.80
2022-11-06T16:12:11.488Z,4.70
2022-11-06T16:14:44.994Z,4.60
2022-11-06T16:17:19.432Z,4.50
2022-11-06T16:19:50.084Z,4.40
2022-11-06T16:22:20.910Z,4.40
2022-11-06T16:24:51.724Z,4.30
2022-11-06T16:27:20.666Z,4.00
2022-11-06T16:29:54.850Z,3.90
2022-11-06T16:32:25.960Z,3.80
2022-11-06T16:34:55.249Z,3.60
2022-11-06T16:37:38.276Z,3.30
2022-11-06T16:40:23.253Z,3.20
2022-11-06T16:43:03.583Z,3.30
2022-11-06T16:45:33.060Z,3.40
2022-11-06T16:48:46.887Z,3.30
2022-11-06T16:51:16.867Z,3.20
2022-11-06T16:53:56.910Z,2.90
2022-11-06T16:56:27.970Z,2.70
2022-11-06T16:59:01.653Z,2.50
2022-11-06T17:01:39.339Z,2.40
2022-11-06T17:04:08.014Z,2.40
2022-11-06T17:06:37.949Z,2.50
2022-11-06T17:09:10.190Z,2.50
2022-11-06T17:11:38.685Z,2.40
2022-11-06T17:14:18.690Z,2.00
2022-11-06T17:16:50.626Z,2.00
2022-11-06T17:19:19.585Z,2.30
2022-11-06T17:21:48.494Z,2.50
2022-11-06T17:24:36.586Z,2.50
2022-11-06T17:27:04.738Z,2.30
2022-11-06T17:29:33.873Z,2.40
2022-11-06T17:32:03.537Z,2.30
2022-11-06T17:34:31.468Z,2.30
2022-11-06T17:36:59.636Z,2.20
2022-11-06T17:39:27.750Z,2.30
2022-11-06T17:41:55.799Z,2.40
2022-11-06T17:44:23.842Z,2.30
2022-11-06T17:46:51.849Z,2.30
2022-11-06T17:49:21.301Z,2.20
2022-11-06T17:51:58.294Z,2.10
2022-11-06T17:54:28.426Z,2.00
2022-11-06T17:56:57.344Z,1.90
2022-11-06T17:59:25.985Z,1.90
2022-11-06T18:01:55.430Z,2.00
2022-11-06T18:04:26.883Z,1.90
2022-11-06T18:06:55.803Z,2.00
2022-11-06T18:09:24.931Z,2.00
2022-11-06T18:11:54.732Z,2.00
2022-11-06T18:14:24.258Z,1.90
2022-11-06T18:16:53.156Z,2.00
2022-11-06T18:19:25.144Z,1.70
2022-11-06T18:21:55.552Z,1.70
2022-11-06T18:24:23.801Z,1.50
2022-11-06T18:26:52.071Z,1.50
2022-11-06T18:29:20.801Z,1.30
2022-11-06T18:31:49.023Z,1.30
2022-11-06T18:34:21.100Z,1.30
2022-11-06T18:36:51.749Z,1.40
2022-11-06T18:39:21.263Z,1.10
2022-11-06T18:41:49.475Z,1.10
2022-11-06T18:44:18.459Z,1.20
2022-11-06T18:46:46.778Z,1.20
2022-11-06T18:49:15.255Z,1.30
2022-11-06T18:51:43.439Z,1.30
2022-11-06T18:54:13.774Z,1.40
2022-11-06T18:56:42.324Z,1.40
2022-11-06T18:59:15.139Z,1.40
2022-11-06T19:01:43.280Z,1.40
2022-11-06T19:04:11.624Z,1.20
2022-11-06T19:06:40.351Z,1.20
2022-11-06T19:09:09.043Z,1.00
2022-11-06T19:11:38.476Z,1.10
2022-11-06T19:14:06.910Z,1.00
2022-11-06T19:16:35.190Z,1.00
2022-11-06T19:19:05.506Z,1.10
2022-11-06T19:21:34.558Z,1.10
2022-11-06T19:24:05.954Z,1.10
2022-11-06T19:26:35.351Z,1.10
2022-11-06T19:29:05.889Z,1.10
2022-11-06T19:31:35.099Z,1.00
2022-11-06T19:34:04.525Z,1.00
2022-11-06T19:36:33.512Z,1.00
2022-11-06T19:39:01.569Z,0.90
2022-11-06T19:41:30.288Z,0.70
2022-11-06T19:43:58.530Z,0.40
2022-11-06T19:46:33.994Z,0.60
2022-11-06T19:49:03.942Z,0.80
2022-11-06T19:51:33.155Z,0.80
2022-11-06T19:54:01.950Z,0.90
2022-11-06T19:56:30.053Z,0.80
2022-11-06T19:58:58.136Z,0.70
2022-11-06T20:01:27.691Z,0.60
2022-11-06T20:03:55.792Z,0.70
2022-11-06T20:06:23.984Z,0.70
2022-11-06T20:08:51.988Z,0.90
2022-11-06T20:11:20.045Z,0.90
2022-11-06T20:13:49.306Z,0.90
2022-11-06T20:16:19.810Z,1.00
2022-11-06T20:18:53.614Z,0.60
2022-11-06T20:21:22.067Z,0.60
2022-11-06T20:23:50.592Z,0.80
2022-11-06T20:26:18.915Z,0.90
2022-11-06T20:28:48.458Z,0.90
2022-11-06T20:31:19.561Z,0.80
2022-11-06T20:33:48.568Z,0.80
2022-11-06T20:36:22.930Z,0.60
2022-11-06T20:38:51.593Z,0.20
2022-11-06T20:41:19.894Z,0.30
2022-11-06T20:43:49.888Z,0.60
2022-11-06T20:46:19.791Z,0.70
2022-11-06T20:48:48.523Z,0.60
2022-11-06T20:51:20.160Z,0.60
2022-11-06T20:53:48.509Z,0.50
2022-11-06T20:56:18.530Z,0.50
2022-11-06T20:58:46.684Z,0.50
2022-11-06T21:01:18.202Z,0.40
2022-11-06T21:03:47.763Z,0.40
2022-11-06T21:06:17.333Z,0.40
2022-11-06T21:08:45.669Z,0.30
2022-11-06T21:11:16.683Z,0.40
2022-11-06T21:13:46.607Z,0.40
2022-11-06T21:16:16.990Z,0.40
2022-11-06T21:18:45.583Z,0.40
2022-11-06T21:21:16.072Z,0.40
2022-11-06T21:23:45.602Z,0.50
2022-11-06T21:26:14.979Z,0.30
2022-11-06T21:28:44.234Z,0.20
2022-11-06T21:31:13.692Z,0.20
2022-11-06T21:33:42.364Z,0.20
2022-11-06T21:36:12.253Z,0.10
2022-11-06T21:38:40.963Z,0.10
2022-11-06T21:41:13.845Z,0.10
2022-11-06T21:43:42.281Z,0.00
2022-11-06T21:46:13.471Z,0.00
2022-11-06T21:48:47.448Z,-0.10
2022-11-06T21:51:19.200Z,-0.10
2022-11-06T21:54:05.677Z,-0.10
2022-11-06T21:56:35.827Z,-0.10
2022-11-06T21:59:05.459Z,-0.10
2022-11-06T22:01:33.828Z,0.00
2022-11-06T22:04:03.216Z,0.10
2022-11-06T22:06:32.298Z,0.10
2022-11-06T22:09:02.766Z,0.10
2022-11-06T22:11:33.553Z,0.10
2022-11-06T22:14:04.799Z,-0.20
2022-11-06T22:16:34.838Z,-0.40
2022-11-06T22:19:03.876Z,-0.30
2022-11-06T22:21:32.204Z,-0.30
2022-11-06T22:24:00.175Z,-0.30
2022-11-06T22:26:30.191Z,-0.20
2022-11-06T22:29:00.068Z,-0.20
2022-11-06T22:31:30.031Z,-0.20
2022-11-06T22:33:58.757Z,-0.20
2022-11-06T22:36:27.891Z,-0.30
2022-11-06T22:38:56.663Z,-0.40
2022-11-06T22:41:25.904Z,-0.50
2022-11-06T22:43:57.909Z,-0.40
2022-11-06T22:46:27.512Z,-0.40
2022-11-06T22:48:57.114Z,-0.30
2022-11-06T22:51:26.994Z,-0.30
2022-11-06T22:53:55.429Z,-0.30
2022-11-06T22:56:24.991Z,-0.10
2022-11-06T22:58:55.319Z,-0.10
2022-11-06T23:01:25.667Z,-0.10
2022-11-06T23:03:56.581Z,0.00
2022-11-06T23:06:27.009Z,-0.30
2022-11-06T23:08:55.234Z,-0.40
2022-11-06T23:11:25.968Z,-0.30
2022-11-06T23:13:55.173Z,-0.40
2022-11-06T23:16:39.217Z,-0.40
2022-11-06T23:19:07.285Z,-0.30
2022-11-06T23:21:37.035Z,-0.20
2022-11-06T23:24:06.210Z,-0.20
2022-11-06T23:26:34.739Z,-0.20
2022-11-06T23:29:03.480Z,-0.20
2022-11-06T23:31:31.765Z,-0.20
2022-11-06T23:33:59.806Z,-0.20
2022-11-06T23:36:27.860Z,-0.30
2022-11-06T23:38:57.307Z,-0.40
2022-11-06T23:41:43.032Z,-0.30
2022-11-06T23:44:31.056Z,-0.30
2022-11-06T23:46:58.698Z,-0.20
2022-11-06T23:49:26.957Z,-0.20
2022-11-06T23:51:55.785Z,-0.20
2022-11-06T23:54:25.961Z,-0.20
2022-11-06T23:56:54.008Z,-0.20
2022-11-06T23:59:22.374Z,-0.20
